sensor_id;sensor_type;location;lat;lon;timestamp;P1;durP1;ratioP1;P2;durP2;ratioP2
12780;SDS011;6454;43.304;24.344;2023-02-01T00:02:09;2.63;;;2.20;;
12780;SDS011;6454;43.304;24.344;2023-02-01T00:04:36;3.87;;;2.30;;
12780;SDS011;6454;43.304;24.344;2023-02-01T00:07:02;3.03;;;2.17;;
12780;SDS011;6454;43.304;24.344;2023-02-01T00:09:29;3.20;;;2.20;;
12780;SDS011;6454;43.304;24.344;2023-02-01T00:11:57;2.53;;;2.10;;
12780;SDS011;6454;43.304;24.344;2023-02-01T00:14:26;2.50;;;2.10;;
12780;SDS011;6454;43.304;24.344;2023-02-01T00:16:53;2.67;;;2.00;;
12780;SDS011;6454;43.304;24.344;2023-02-01T00:19:20;3.13;;;2.33;;
12780;SDS011;6454;43.304;24.344;2023-02-01T00:21:47;2.33;;;2.07;;
12780;SDS011;6454;43.304;24.344;2023-02-01T00:24:14;5.37;;;2.20;;
12780;SDS011;6454;43.304;24.344;2023-02-01T00:26:41;2.50;;;2.20;;
12780;SDS011;6454;43.304;24.344;2023-02-01T00:29:12;4.20;;;2.30;;
12780;SDS011;6454;43.304;24.344;2023-02-01T00:31:40;3.47;;;2.37;;
12780;SDS011;6454;43.304;24.344;2023-02-01T00:34:08;3.43;;;2.17;;
12780;SDS011;6454;43.304;24.344;2023-02-01T00:36:36;2.20;;;2.00;;
12780;SDS011;6454;43.304;24.344;2023-02-01T00:39:03;4.57;;;2.73;;
12780;SDS011;6454;43.304;24.344;2023-02-01T00:41:30;3.40;;;2.43;;
12780;SDS011;6454;43.304;24.344;2023-02-01T00:43:57;3.13;;;2.50;;
12780;SDS011;6454;43.304;24.344;2023-02-01T00:46:25;3.73;;;3.00;;
12780;SDS011;6454;43.304;24.344;2023-02-01T00:48:52;3.23;;;2.57;;
12780;SDS011;6454;43.304;24.344;2023-02-01T00:51:19;3.73;;;2.50;;
12780;SDS011;6454;43.304;24.344;2023-02-01T00:53:48;2.60;;;2.33;;
12780;SDS011;6454;43.304;24.344;2023-02-01T00:56:16;4.93;;;2.50;;
12780;SDS011;6454;43.304;24.344;2023-02-01T00:58:43;3.47;;;2.90;;
12780;SDS011;6454;43.304;24.344;2023-02-01T01:01:12;2.67;;;2.37;;
12780;SDS011;6454;43.304;24.344;2023-02-01T01:03:43;3.80;;;2.50;;
12780;SDS011;6454;43.304;24.344;2023-02-01T01:06:11;5.67;;;2.40;;
12780;SDS011;6454;43.304;24.344;2023-02-01T01:08:40;3.10;;;2.50;;
12780;SDS011;6454;43.304;24.344;2023-02-01T01:11:07;2.57;;;2.30;;
12780;SDS011;6454;43.304;24.344;2023-02-01T01:13:36;3.60;;;2.60;;
12780;SDS011;6454;43.304;24.344;2023-02-01T01:16:03;6.13;;;2.63;;
12780;SDS011;6454;43.304;24.344;2023-02-01T01:18:32;6.20;;;2.87;;
12780;SDS011;6454;43.304;24.344;2023-02-01T01:21:01;3.87;;;2.70;;
12780;SDS011;6454;43.304;24.344;2023-02-01T01:23:30;3.97;;;3.00;;
12780;SDS011;6454;43.304;24.344;2023-02-01T01:25:57;3.13;;;2.40;;
12780;SDS011;6454;43.304;24.344;2023-02-01T01:28:24;9.27;;;2.90;;
12780;SDS011;6454;43.304;24.344;2023-02-01T01:30:51;2.57;;;2.30;;
12780;SDS011;6454;43.304;24.344;2023-02-01T01:33:18;3.03;;;2.57;;
12780;SDS011;6454;43.304;24.344;2023-02-01T01:35:45;4.17;;;2.50;;
12780;SDS011;6454;43.304;24.344;2023-02-01T01:38:13;3.70;;;2.53;;
12780;SDS011;6454;43.304;24.344;2023-02-01T01:40:39;3.27;;;2.67;;
12780;SDS011;6454;43.304;24.344;2023-02-01T01:43:12;4.47;;;3.23;;
12780;SDS011;6454;43.304;24.344;2023-02-01T01:45:40;3.00;;;2.80;;
12780;SDS011;6454;43.304;24.344;2023-02-01T01:48:07;3.30;;;3.00;;
12780;SDS011;6454;43.304;24.344;2023-02-01T01:50:40;4.97;;;3.00;;
12780;SDS011;6454;43.304;24.344;2023-02-01T01:53:15;3.87;;;3.20;;
12780;SDS011;6454;43.304;24.344;2023-02-01T01:55:45;4.27;;;3.17;;
12780;SDS011;6454;43.304;24.344;2023-02-01T01:58:15;5.90;;;2.80;;
12780;SDS011;6454;43.304;24.344;2023-02-01T02:00:44;3.43;;;2.90;;
12780;SDS011;6454;43.304;24.344;2023-02-01T02:03:14;3.37;;;2.90;;
12780;SDS011;6454;43.304;24.344;2023-02-01T02:05:44;5.53;;;2.93;;
12780;SDS011;6454;43.304;24.344;2023-02-01T02:08:12;3.10;;;2.57;;
12780;SDS011;6454;43.304;24.344;2023-02-01T02:10:40;4.33;;;3.10;;
12780;SDS011;6454;43.304;24.344;2023-02-01T02:13:26;3.23;;;2.90;;
12780;SDS011;6454;43.304;24.344;2023-02-01T02:15:59;3.70;;;2.80;;
12780;SDS011;6454;43.304;24.344;2023-02-01T02:18:34;3.60;;;2.83;;
12780;SDS011;6454;43.304;24.344;2023-02-01T02:21:11;3.27;;;2.80;;
12780;SDS011;6454;43.304;24.344;2023-02-01T02:27:09;4.03;;;2.87;;
12780;SDS011;6454;43.304;24.344;2023-02-01T02:35:57;3.00;;;2.70;;
12780;SDS011;6454;43.304;24.344;2023-02-01T02:38:29;3.47;;;2.90;;
12780;SDS011;6454;43.304;24.344;2023-02-01T02:41:04;3.70;;;2.50;;
12780;SDS011;6454;43.304;24.344;2023-02-01T02:43:37;5.97;;;2.73;;
12780;SDS011;6454;43.304;24.344;2023-02-01T02:46:31;3.30;;;2.87;;
12780;SDS011;6454;43.304;24.344;2023-02-01T02:49:34;3.50;;;2.80;;
12780;SDS011;6454;43.304;24.344;2023-02-01T02:52:08;4.70;;;2.63;;
12780;SDS011;6454;43.304;24.344;2023-02-01T02:54:56;3.23;;;2.57;;
12780;SDS011;6454;43.304;24.344;2023-02-01T02:57:26;3.43;;;2.50;;
12780;SDS011;6454;43.304;24.344;2023-02-01T03:00:14;3.17;;;2.40;;
12780;SDS011;6454;43.304;24.344;2023-02-01T03:03:00;4.27;;;2.73;;
12780;SDS011;6454;43.304;24.344;2023-02-01T03:05:47;4.50;;;2.60;;
12780;SDS011;6454;43.304;24.344;2023-02-01T03:08:16;4.60;;;3.00;;
12780;SDS011;6454;43.304;24.344;2023-02-01T03:10:48;3.57;;;2.67;;
12780;SDS011;6454;43.304;24.344;2023-02-01T03:13:25;2.97;;;2.60;;
12780;SDS011;6454;43.304;24.344;2023-02-01T03:15:58;3.10;;;2.47;;
12780;SDS011;6454;43.304;24.344;2023-02-01T03:18:30;2.83;;;2.40;;
12780;SDS011;6454;43.304;24.344;2023-02-01T03:21:05;5.30;;;2.50;;
12780;SDS011;6454;43.304;24.344;2023-02-01T03:23:36;2.90;;;2.60;;
12780;SDS011;6454;43.304;24.344;2023-02-01T03:26:04;3.23;;;2.57;;
12780;SDS011;6454;43.304;24.344;2023-02-01T03:28:33;2.60;;;2.40;;
12780;SDS011;6454;43.304;24.344;2023-02-01T03:31:02;3.27;;;2.50;;
12780;SDS011;6454;43.304;24.344;2023-02-01T03:33:29;5.80;;;2.70;;
12780;SDS011;6454;43.304;24.344;2023-02-01T03:36:00;3.57;;;2.47;;
12780;SDS011;6454;43.304;24.344;2023-02-01T03:38:41;3.37;;;2.20;;
12780;SDS011;6454;43.304;24.344;2023-02-01T03:41:17;2.30;;;1.83;;
12780;SDS011;6454;43.304;24.344;2023-02-01T03:43:51;4.70;;;2.67;;
12780;SDS011;6454;43.304;24.344;2023-02-01T03:46:24;3.53;;;2.60;;
12780;SDS011;6454;43.304;24.344;2023-02-01T03:48:58;3.73;;;2.43;;
12780;SDS011;6454;43.304;24.344;2023-02-01T03:51:29;3.40;;;2.30;;
12780;SDS011;6454;43.304;24.344;2023-02-01T03:53:58;3.20;;;2.50;;
12780;SDS011;6454;43.304;24.344;2023-02-01T03:56:25;3.93;;;2.50;;
12780;SDS011;6454;43.304;24.344;2023-02-01T03:58:54;2.67;;;2.33;;
12780;SDS011;6454;43.304;24.344;2023-02-01T04:01:25;3.17;;;2.50;;
12780;SDS011;6454;43.304;24.344;2023-02-01T04:03:53;3.53;;;2.10;;
12780;SDS011;6454;43.304;24.344;2023-02-01T04:06:20;4.33;;;2.00;;
12780;SDS011;6454;43.304;24.344;2023-02-01T04:08:48;2.70;;;2.30;;
12780;SDS011;6454;43.304;24.344;2023-02-01T04:11:15;2.57;;;2.20;;
12780;SDS011;6454;43.304;24.344;2023-02-01T04:13:43;2.13;;;1.93;;
12780;SDS011;6454;43.304;24.344;2023-02-01T04:16:10;2.67;;;1.90;;
12780;SDS011;6454;43.304;24.344;2023-02-01T04:18:37;2.17;;;1.90;;
12780;SDS011;6454;43.304;24.344;2023-02-01T04:21:04;4.10;;;2.40;;
12780;SDS011;6454;43.304;24.344;2023-02-01T04:23:30;3.40;;;2.30;;
12780;SDS011;6454;43.304;24.344;2023-02-01T04:26:02;3.30;;;2.20;;
12780;SDS011;6454;43.304;24.344;2023-02-01T04:28:30;3.83;;;2.57;;
12780;SDS011;6454;43.304;24.344;2023-02-01T04:30:57;4.10;;;1.97;;
12780;SDS011;6454;43.304;24.344;2023-02-01T04:33:24;4.83;;;2.33;;
12780;SDS011;6454;43.304;24.344;2023-02-01T04:35:50;5.27;;;2.17;;
12780;SDS011;6454;43.304;24.344;2023-02-01T04:38:17;2.27;;;2.03;;
12780;SDS011;6454;43.304;24.344;2023-02-01T04:40:46;2.63;;;2.33;;
12780;SDS011;6454;43.304;24.344;2023-02-01T04:43:15;2.07;;;1.87;;
12780;SDS011;6454;43.304;24.344;2023-02-01T04:45:46;3.33;;;2.13;;
12780;SDS011;6454;43.304;24.344;2023-02-01T04:48:13;4.23;;;1.93;;
12780;SDS011;6454;43.304;24.344;2023-02-01T04:50:40;3.27;;;2.17;;
12780;SDS011;6454;43.304;24.344;2023-02-01T04:53:07;3.80;;;2.10;;
12780;SDS011;6454;43.304;24.344;2023-02-01T04:55:34;2.97;;;1.87;;
12780;SDS011;6454;43.304;24.344;2023-02-01T04:58:01;2.33;;;1.93;;
12780;SDS011;6454;43.304;24.344;2023-02-01T11:22:45;2.45;;;1.27;;
12780;SDS011;6454;43.304;24.344;2023-02-01T11:25:13;1.90;;;1.35;;
12780;SDS011;6454;43.304;24.344;2023-02-01T11:27:42;1.75;;;1.40;;
12780;SDS011;6454;43.304;24.344;2023-02-01T11:30:13;2.22;;;1.38;;
12780;SDS011;6454;43.304;24.344;2023-02-01T11:32:42;1.50;;;1.33;;
12780;SDS011;6454;43.304;24.344;2023-02-01T11:35:13;1.98;;;1.40;;
12780;SDS011;6454;43.304;24.344;2023-02-01T11:37:44;2.25;;;1.42;;
12780;SDS011;6454;43.304;24.344;2023-02-01T11:40:23;1.88;;;1.48;;
12780;SDS011;6454;43.304;24.344;2023-02-01T11:42:54;2.25;;;1.20;;
12780;SDS011;6454;43.304;24.344;2023-02-01T11:45:24;2.58;;;1.50;;
12780;SDS011;6454;43.304;24.344;2023-02-01T11:47:53;1.40;;;1.30;;
12780;SDS011;6454;43.304;24.344;2023-02-01T11:50:25;1.35;;;1.15;;
12780;SDS011;6454;43.304;24.344;2023-02-01T11:53:11;2.20;;;1.00;;
12780;SDS011;6454;43.304;24.344;2023-02-01T11:56:01;1.52;;;1.30;;
12780;SDS011;6454;43.304;24.344;2023-02-01T12:01:29;1.40;;;1.10;;
12780;SDS011;6454;43.304;24.344;2023-02-01T12:04:08;2.80;;;1.42;;
12780;SDS011;6454;43.304;24.344;2023-02-01T12:07:01;1.40;;;1.10;;
12780;SDS011;6454;43.304;24.344;2023-02-01T12:09:38;1.27;;;1.17;;
12780;SDS011;6454;43.304;24.344;2023-02-01T12:12:17;2.10;;;1.40;;
12780;SDS011;6454;43.304;24.344;2023-02-01T12:15:01;2.13;;;1.20;;
12780;SDS011;6454;43.304;24.344;2023-02-01T12:17:48;3.10;;;1.42;;
12780;SDS011;6454;43.304;24.344;2023-02-01T12:23:40;1.30;;;1.20;;
12780;SDS011;6454;43.304;24.344;2023-02-01T12:26:24;1.35;;;1.25;;
12780;SDS011;6454;43.304;24.344;2023-02-01T12:29:27;3.55;;;1.63;;
12780;SDS011;6454;43.304;24.344;2023-02-01T12:32:09;1.30;;;1.20;;
12780;SDS011;6454;43.304;24.344;2023-02-01T12:34:50;2.47;;;1.20;;
12780;SDS011;6454;43.304;24.344;2023-02-01T12:37:38;1.17;;;1.08;;
12780;SDS011;6454;43.304;24.344;2023-02-01T12:40:28;1.35;;;1.17;;
12780;SDS011;6454;43.304;24.344;2023-02-01T12:43:08;1.88;;;1.30;;
12780;SDS011;6454;43.304;24.344;2023-02-01T12:45:40;3.03;;;1.27;;
12780;SDS011;6454;43.304;24.344;2023-02-01T12:48:18;2.45;;;1.23;;
12780;SDS011;6454;43.304;24.344;2023-02-01T12:50:53;2.63;;;1.30;;
12780;SDS011;6454;43.304;24.344;2023-02-01T12:53:25;2.00;;;1.30;;
12780;SDS011;6454;43.304;24.344;2023-02-01T12:55:58;1.52;;;1.35;;
12780;SDS011;6454;43.304;24.344;2023-02-01T12:58:31;1.65;;;1.50;;
12780;SDS011;6454;43.304;24.344;2023-02-01T13:01:05;1.75;;;1.40;;
12780;SDS011;6454;43.304;24.344;2023-02-01T13:03:36;1.75;;;1.50;;
12780;SDS011;6454;43.304;24.344;2023-02-01T13:06:07;3.40;;;1.45;;
12780;SDS011;6454;43.304;24.344;2023-02-01T13:08:40;2.03;;;1.20;;
12780;SDS011;6454;43.304;24.344;2023-02-01T13:11:15;1.60;;;1.38;;
12780;SDS011;6454;43.304;24.344;2023-02-01T13:13:49;2.30;;;1.33;;
12780;SDS011;6454;43.304;24.344;2023-02-01T13:16:23;1.33;;;1.20;;
12780;SDS011;6454;43.304;24.344;2023-02-01T13:18:57;2.03;;;1.35;;
12780;SDS011;6454;43.304;24.344;2023-02-01T13:21:31;1.55;;;1.20;;
12780;SDS011;6454;43.304;24.344;2023-02-01T13:24:00;2.00;;;1.30;;
12780;SDS011;6454;43.304;24.344;2023-02-01T13:26:29;2.50;;;1.25;;
12780;SDS011;6454;43.304;24.344;2023-02-01T13:28:56;1.65;;;1.42;;
12780;SDS011;6454;43.304;24.344;2023-02-01T13:34:32;1.00;;;1.00;;
12780;SDS011;6454;43.304;24.344;2023-02-01T13:37:30;1.92;;;1.40;;
12780;SDS011;6454;43.304;24.344;2023-02-01T13:40:17;1.40;;;1.30;;
12780;SDS011;6454;43.304;24.344;2023-02-01T13:42:56;2.65;;;1.70;;
12780;SDS011;6454;43.304;24.344;2023-02-01T13:45:27;1.23;;;1.13;;
12780;SDS011;6454;43.304;24.344;2023-02-01T13:47:58;2.28;;;1.42;;
12780;SDS011;6454;43.304;24.344;2023-02-01T13:50:28;1.40;;;1.17;;
12780;SDS011;6454;43.304;24.344;2023-02-01T13:52:59;1.92;;;1.50;;
12780;SDS011;6454;43.304;24.344;2023-02-01T13:55:33;2.88;;;1.30;;
12780;SDS011;6454;43.304;24.344;2023-02-01T13:58:05;1.48;;;1.20;;
12780;SDS011;6454;43.304;24.344;2023-02-01T14:00:44;1.30;;;1.20;;
12780;SDS011;6454;43.304;24.344;2023-02-01T14:03:14;1.95;;;1.40;;
12780;SDS011;6454;43.304;24.344;2023-02-01T14:06:15;2.40;;;1.52;;
12780;SDS011;6454;43.304;24.344;2023-02-01T14:08:45;1.48;;;1.25;;
12780;SDS011;6454;43.304;24.344;2023-02-01T14:11:37;1.50;;;1.40;;
12780;SDS011;6454;43.304;24.344;2023-02-01T14:23:20;2.38;;;1.45;;
12780;SDS011;6454;43.304;24.344;2023-02-01T14:26:01;1.50;;;1.40;;
12780;SDS011;6454;43.304;24.344;2023-02-01T14:28:30;2.35;;;1.20;;
12780;SDS011;6454;43.304;24.344;2023-02-01T14:30:58;2.58;;;1.55;;
12780;SDS011;6454;43.304;24.344;2023-02-01T14:33:26;3.05;;;1.60;;
12780;SDS011;6454;43.304;24.344;2023-02-01T14:36:03;1.98;;;1.58;;
12780;SDS011;6454;43.304;24.344;2023-02-01T14:38:33;1.77;;;1.35;;
12780;SDS011;6454;43.304;24.344;2023-02-01T14:44:23;2.30;;;1.48;;
12780;SDS011;6454;43.304;24.344;2023-02-01T14:47:06;1.83;;;1.50;;
12780;SDS011;6454;43.304;24.344;2023-02-01T14:53:14;1.33;;;1.23;;
12780;SDS011;6454;43.304;24.344;2023-02-01T14:55:46;6.75;;;1.83;;
12780;SDS011;6454;43.304;24.344;2023-02-01T14:58:18;1.60;;;1.50;;
12780;SDS011;6454;43.304;24.344;2023-02-01T15:00:51;2.30;;;1.60;;
12780;SDS011;6454;43.304;24.344;2023-02-01T15:03:33;3.75;;;1.80;;
12780;SDS011;6454;43.304;24.344;2023-02-01T15:06:19;3.13;;;1.70;;
12780;SDS011;6454;43.304;24.344;2023-02-01T15:08:51;1.58;;;1.30;;
12780;SDS011;6454;43.304;24.344;2023-02-01T15:11:20;2.88;;;1.48;;
12780;SDS011;6454;43.304;24.344;2023-02-01T15:13:48;2.15;;;1.70;;
12780;SDS011;6454;43.304;24.344;2023-02-01T15:16:18;2.13;;;1.40;;
12780;SDS011;6454;43.304;24.344;2023-02-01T15:18:48;2.97;;;1.50;;
12780;SDS011;6454;43.304;24.344;2023-02-01T15:21:16;2.08;;;1.40;;
12780;SDS011;6454;43.304;24.344;2023-02-01T15:23:44;2.10;;;1.45;;
12780;SDS011;6454;43.304;24.344;2023-02-01T15:26:24;1.40;;;1.30;;
12780;SDS011;6454;43.304;24.344;2023-02-01T15:28:51;1.88;;;1.42;;
12780;SDS011;6454;43.304;24.344;2023-02-01T15:31:30;2.80;;;1.60;;
12780;SDS011;6454;43.304;24.344;2023-02-01T15:34:00;1.48;;;1.38;;
12780;SDS011;6454;43.304;24.344;2023-02-01T15:36:27;2.07;;;1.80;;
12780;SDS011;6454;43.304;24.344;2023-02-01T15:41:46;2.53;;;1.67;;
12780;SDS011;6454;43.304;24.344;2023-02-01T15:46:59;2.20;;;1.85;;
12780;SDS011;6454;43.304;24.344;2023-02-01T15:49:36;2.43;;;1.60;;
12780;SDS011;6454;43.304;24.344;2023-02-01T15:54:49;4.72;;;1.88;;
12780;SDS011;6454;43.304;24.344;2023-02-01T15:57:19;3.70;;;1.88;;
12780;SDS011;6454;43.304;24.344;2023-02-01T15:59:48;1.83;;;1.60;;
12780;SDS011;6454;43.304;24.344;2023-02-01T16:02:26;2.67;;;1.80;;
12780;SDS011;6454;43.304;24.344;2023-02-01T16:04:57;3.25;;;1.75;;
12780;SDS011;6454;43.304;24.344;2023-02-01T16:07:26;2.20;;;1.60;;
12780;SDS011;6454;43.304;24.344;2023-02-01T16:09:54;2.30;;;1.90;;
12780;SDS011;6454;43.304;24.344;2023-02-01T16:12:30;2.60;;;1.80;;
12780;SDS011;6454;43.304;24.344;2023-02-01T16:15:00;3.30;;;1.83;;
12780;SDS011;6454;43.304;24.344;2023-02-01T16:17:27;4.15;;;2.00;;
12780;SDS011;6454;43.304;24.344;2023-02-01T16:19:53;3.63;;;1.90;;
12780;SDS011;6454;43.304;24.344;2023-02-01T16:22:21;3.33;;;1.92;;
12780;SDS011;6454;43.304;24.344;2023-02-01T16:24:48;2.33;;;1.80;;
12780;SDS011;6454;43.304;24.344;2023-02-01T16:27:15;2.33;;;1.90;;
12780;SDS011;6454;43.304;24.344;2023-02-01T16:29:42;2.60;;;1.77;;
12780;SDS011;6454;43.304;24.344;2023-02-01T16:32:11;2.93;;;1.80;;
12780;SDS011;6454;43.304;24.344;2023-02-01T16:34:43;3.05;;;1.70;;
12780;SDS011;6454;43.304;24.344;2023-02-01T16:37:11;2.40;;;1.60;;
12780;SDS011;6454;43.304;24.344;2023-02-01T16:39:40;2.33;;;1.70;;
12780;SDS011;6454;43.304;24.344;2023-02-01T16:42:09;2.30;;;1.70;;
12780;SDS011;6454;43.304;24.344;2023-02-01T16:44:37;2.00;;;1.63;;
12780;SDS011;6454;43.304;24.344;2023-02-01T16:47:05;2.07;;;1.60;;
12780;SDS011;6454;43.304;24.344;2023-02-01T16:49:38;2.43;;;1.50;;
12780;SDS011;6454;43.304;24.344;2023-02-01T16:52:08;3.43;;;2.00;;
12780;SDS011;6454;43.304;24.344;2023-02-01T16:54:41;2.42;;;1.50;;
12780;SDS011;6454;43.304;24.344;2023-02-01T16:57:11;4.47;;;2.03;;
12780;SDS011;6454;43.304;24.344;2023-02-01T16:59:38;1.60;;;1.43;;
12780;SDS011;6454;43.304;24.344;2023-02-01T17:02:06;2.00;;;1.80;;
12780;SDS011;6454;43.304;24.344;2023-02-01T17:04:36;2.97;;;2.00;;
12780;SDS011;6454;43.304;24.344;2023-02-01T17:07:02;1.70;;;1.60;;
12780;SDS011;6454;43.304;24.344;2023-02-01T17:09:34;2.20;;;1.67;;
12780;SDS011;6454;43.304;24.344;2023-02-01T17:12:03;2.43;;;2.07;;
12780;SDS011;6454;43.304;24.344;2023-02-01T17:14:32;2.23;;;1.80;;
12780;SDS011;6454;43.304;24.344;2023-02-01T17:17:04;1.83;;;1.60;;
12780;SDS011;6454;43.304;24.344;2023-02-01T17:19:31;3.43;;;1.77;;
12780;SDS011;6454;43.304;24.344;2023-02-01T17:21:58;2.37;;;1.63;;
12780;SDS011;6454;43.304;24.344;2023-02-01T17:24:25;2.10;;;1.67;;
12780;SDS011;6454;43.304;24.344;2023-02-01T17:26:54;1.83;;;1.47;;
12780;SDS011;6454;43.304;24.344;2023-02-01T17:29:23;2.07;;;1.50;;
12780;SDS011;6454;43.304;24.344;2023-02-01T17:31:51;1.90;;;1.67;;
12780;SDS011;6454;43.304;24.344;2023-02-01T17:34:19;2.53;;;1.50;;
12780;SDS011;6454;43.304;24.344;2023-02-01T17:36:47;1.73;;;1.50;;
12780;SDS011;6454;43.304;24.344;2023-02-01T17:39:14;2.37;;;1.97;;
12780;SDS011;6454;43.304;24.344;2023-02-01T17:41:55;2.57;;;1.90;;
12780;SDS011;6454;43.304;24.344;2023-02-01T17:44:23;4.00;;;2.30;;
12780;SDS011;6454;43.304;24.344;2023-02-01T17:46:50;2.33;;;2.00;;
12780;SDS011;6454;43.304;24.344;2023-02-01T17:49:17;2.57;;;1.83;;
12780;SDS011;6454;43.304;24.344;2023-02-01T17:51:44;3.27;;;2.20;;
12780;SDS011;6454;43.304;24.344;2023-02-01T17:54:11;3.43;;;2.37;;
12780;SDS011;6454;43.304;24.344;2023-02-01T17:56:38;3.70;;;2.43;;
12780;SDS011;6454;43.304;24.344;2023-02-01T17:59:05;2.63;;;2.20;;
12780;SDS011;6454;43.304;24.344;2023-02-01T18:01:33;3.73;;;2.50;;
12780;SDS011;6454;43.304;24.344;2023-02-01T18:04:00;3.40;;;2.47;;
12780;SDS011;6454;43.304;24.344;2023-02-01T18:06:27;2.60;;;2.20;;
12780;SDS011;6454;43.304;24.344;2023-02-01T18:08:57;2.70;;;2.10;;
12780;SDS011;6454;43.304;24.344;2023-02-01T18:11:24;3.37;;;2.40;;
12780;SDS011;6454;43.304;24.344;2023-02-01T18:13:51;2.97;;;2.20;;
12780;SDS011;6454;43.304;24.344;2023-02-01T18:16:20;2.87;;;2.30;;
12780;SDS011;6454;43.304;24.344;2023-02-01T18:18:49;2.80;;;2.50;;
12780;SDS011;6454;43.304;24.344;2023-02-01T18:21:17;5.03;;;2.27;;
12780;SDS011;6454;43.304;24.344;2023-02-01T18:23:45;3.23;;;2.60;;
12780;SDS011;6454;43.304;24.344;2023-02-01T18:26:13;4.73;;;2.90;;
12780;SDS011;6454;43.304;24.344;2023-02-01T18:28:40;3.27;;;2.60;;
12780;SDS011;6454;43.304;24.344;2023-02-01T18:31:11;3.70;;;2.30;;
12780;SDS011;6454;43.304;24.344;2023-02-01T18:33:46;3.37;;;2.40;;
12780;SDS011;6454;43.304;24.344;2023-02-01T18:36:14;3.50;;;2.53;;
12780;SDS011;6454;43.304;24.344;2023-02-01T18:38:41;3.33;;;2.17;;
12780;SDS011;6454;43.304;24.344;2023-02-01T18:41:08;2.33;;;2.13;;
12780;SDS011;6454;43.304;24.344;2023-02-01T18:43:39;3.73;;;2.20;;
12780;SDS011;6454;43.304;24.344;2023-02-01T18:46:07;4.63;;;2.40;;
12780;SDS011;6454;43.304;24.344;2023-02-01T18:48:34;3.50;;;2.20;;
12780;SDS011;6454;43.304;24.344;2023-02-01T18:51:01;2.90;;;2.20;;
12780;SDS011;6454;43.304;24.344;2023-02-01T18:53:30;2.17;;;1.80;;
12780;SDS011;6454;43.304;24.344;2023-02-01T18:55:57;2.60;;;1.90;;
12780;SDS011;6454;43.304;24.344;2023-02-01T18:58:24;2.87;;;2.10;;
12780;SDS011;6454;43.304;24.344;2023-02-01T19:00:52;2.23;;;1.90;;
12780;SDS011;6454;43.304;24.344;2023-02-01T19:03:20;3.23;;;1.90;;
12780;SDS011;6454;43.304;24.344;2023-02-01T19:05:50;3.07;;;1.90;;
12780;SDS011;6454;43.304;24.344;2023-02-01T19:08:19;4.10;;;2.30;;
12780;SDS011;6454;43.304;24.344;2023-02-01T19:10:49;1.97;;;1.77;;
12780;SDS011;6454;43.304;24.344;2023-02-01T19:13:16;1.80;;;1.70;;
12780;SDS011;6454;43.304;24.344;2023-02-01T19:15:45;2.30;;;2.03;;
12780;SDS011;6454;43.304;24.344;2023-02-01T19:18:12;2.43;;;1.83;;
12780;SDS011;6454;43.304;24.344;2023-02-01T19:20:40;2.10;;;1.80;;
12780;SDS011;6454;43.304;24.344;2023-02-01T19:23:10;2.07;;;1.80;;
12780;SDS011;6454;43.304;24.344;2023-02-01T19:25:37;1.87;;;1.60;;
12780;SDS011;6454;43.304;24.344;2023-02-01T19:28:09;2.87;;;1.93;;
12780;SDS011;6454;43.304;24.344;2023-02-01T19:30:36;2.70;;;2.10;;
12780;SDS011;6454;43.304;24.344;2023-02-01T19:33:03;1.80;;;1.70;;
12780;SDS011;6454;43.304;24.344;2023-02-01T19:35:30;2.13;;;1.67;;
12780;SDS011;6454;43.304;24.344;2023-02-01T19:37:57;4.27;;;1.80;;
12780;SDS011;6454;43.304;24.344;2023-02-01T19:40:25;2.37;;;1.80;;
12780;SDS011;6454;43.304;24.344;2023-02-01T19:42:51;2.87;;;2.20;;
12780;SDS011;6454;43.304;24.344;2023-02-01T19:45:21;2.40;;;2.07;;
12780;SDS011;6454;43.304;24.344;2023-02-01T19:47:47;2.40;;;2.10;;
12780;SDS011;6454;43.304;24.344;2023-02-01T19:50:15;3.03;;;2.17;;
12780;SDS011;6454;43.304;24.344;2023-02-01T19:52:43;2.10;;;1.87;;
12780;SDS011;6454;43.304;24.344;2023-02-01T19:55:10;2.73;;;1.70;;
12780;SDS011;6454;43.304;24.344;2023-02-01T19:57:37;2.60;;;1.93;;
12780;SDS011;6454;43.304;24.344;2023-02-01T20:00:05;2.07;;;1.90;;
12780;SDS011;6454;43.304;24.344;2023-02-01T20:02:37;1.70;;;1.60;;
12780;SDS011;6454;43.304;24.344;2023-02-01T20:05:04;3.40;;;2.23;;
12780;SDS011;6454;43.304;24.344;2023-02-01T20:07:33;2.20;;;1.90;;
12780;SDS011;6454;43.304;24.344;2023-02-01T20:09:59;2.13;;;1.77;;
12780;SDS011;6454;43.304;24.344;2023-02-01T20:12:26;1.83;;;1.60;;
12780;SDS011;6454;43.304;24.344;2023-02-01T20:14:53;2.77;;;1.90;;
12780;SDS011;6454;43.304;24.344;2023-02-01T20:17:20;2.70;;;1.80;;
12780;SDS011;6454;43.304;24.344;2023-02-01T20:19:48;2.77;;;2.03;;
12780;SDS011;6454;43.304;24.344;2023-02-01T20:22:15;2.63;;;2.10;;
12780;SDS011;6454;43.304;24.344;2023-02-01T20:24:42;2.00;;;1.73;;
12780;SDS011;6454;43.304;24.344;2023-02-01T20:27:09;2.43;;;1.60;;
12780;SDS011;6454;43.304;24.344;2023-02-01T20:29:37;3.20;;;1.90;;
12780;SDS011;6454;43.304;24.344;2023-02-01T20:32:05;3.43;;;2.20;;
12780;SDS011;6454;43.304;24.344;2023-02-01T20:34:32;3.50;;;2.10;;
12780;SDS011;6454;43.304;24.344;2023-02-01T20:37:00;3.20;;;2.23;;
12780;SDS011;6454;43.304;24.344;2023-02-01T20:39:26;2.30;;;2.10;;
12780;SDS011;6454;43.304;24.344;2023-02-01T20:41:54;2.63;;;2.20;;
12780;SDS011;6454;43.304;24.344;2023-02-01T20:44:21;3.07;;;1.80;;
12780;SDS011;6454;43.304;24.344;2023-02-01T20:46:48;2.60;;;1.80;;
12780;SDS011;6454;43.304;24.344;2023-02-01T20:49:14;2.83;;;1.77;;
12780;SDS011;6454;43.304;24.344;2023-02-01T20:51:41;3.33;;;2.43;;
12780;SDS011;6454;43.304;24.344;2023-02-01T20:54:09;3.20;;;2.70;;
12780;SDS011;6454;43.304;24.344;2023-02-01T20:56:36;2.83;;;2.10;;
12780;SDS011;6454;43.304;24.344;2023-02-01T20:59:03;3.10;;;2.40;;
12780;SDS011;6454;43.304;24.344;2023-02-01T21:01:34;2.80;;;2.27;;
12780;SDS011;6454;43.304;24.344;2023-02-01T21:04:01;2.70;;;2.20;;
12780;SDS011;6454;43.304;24.344;2023-02-01T21:06:28;3.40;;;2.10;;
12780;SDS011;6454;43.304;24.344;2023-02-01T21:08:55;2.93;;;2.07;;
12780;SDS011;6454;43.304;24.344;2023-02-01T21:11:23;2.30;;;2.10;;
12780;SDS011;6454;43.304;24.344;2023-02-01T21:13:50;2.70;;;2.03;;
12780;SDS011;6454;43.304;24.344;2023-02-01T21:16:18;3.33;;;2.27;;
12780;SDS011;6454;43.304;24.344;2023-02-01T21:18:48;4.20;;;2.50;;
12780;SDS011;6454;43.304;24.344;2023-02-01T21:21:15;3.67;;;2.50;;
12780;SDS011;6454;43.304;24.344;2023-02-01T21:23:43;4.80;;;2.67;;
12780;SDS011;6454;43.304;24.344;2023-02-01T21:26:10;5.57;;;3.70;;
12780;SDS011;6454;43.304;24.344;2023-02-01T21:28:38;5.23;;;3.30;;
12780;SDS011;6454;43.304;24.344;2023-02-01T21:31:05;4.77;;;3.07;;
12780;SDS011;6454;43.304;24.344;2023-02-01T21:33:33;4.10;;;2.67;;
12780;SDS011;6454;43.304;24.344;2023-02-01T21:35:59;3.80;;;2.63;;
12780;SDS011;6454;43.304;24.344;2023-02-01T21:38:27;4.03;;;2.97;;
12780;SDS011;6454;43.304;24.344;2023-02-01T21:40:54;3.67;;;2.80;;
12780;SDS011;6454;43.304;24.344;2023-02-01T21:43:35;3.20;;;2.90;;
12780;SDS011;6454;43.304;24.344;2023-02-01T21:46:03;4.23;;;2.60;;
12780;SDS011;6454;43.304;24.344;2023-02-01T21:48:30;3.27;;;2.63;;
12780;SDS011;6454;43.304;24.344;2023-02-01T21:50:57;3.53;;;2.03;;
12780;SDS011;6454;43.304;24.344;2023-02-01T21:53:23;2.77;;;2.30;;
12780;SDS011;6454;43.304;24.344;2023-02-01T21:55:50;4.13;;;2.40;;
12780;SDS011;6454;43.304;24.344;2023-02-01T21:58:17;3.73;;;2.70;;
12780;SDS011;6454;43.304;24.344;2023-02-01T22:00:44;3.07;;;2.47;;
12780;SDS011;6454;43.304;24.344;2023-02-01T22:03:12;3.57;;;2.47;;
12780;SDS011;6454;43.304;24.344;2023-02-01T22:05:39;4.13;;;2.80;;
12780;SDS011;6454;43.304;24.344;2023-02-01T22:08:07;3.47;;;2.40;;
12780;SDS011;6454;43.304;24.344;2023-02-01T22:10:34;4.20;;;2.40;;
12780;SDS011;6454;43.304;24.344;2023-02-01T22:13:03;3.03;;;2.67;;
12780;SDS011;6454;43.304;24.344;2023-02-01T22:15:29;3.00;;;2.47;;